sensor_id;sensor_type;location;lat;lon;timestamp;P1;durP1;ratioP1;P2;durP2;ratioP2
17586;SDS011;8912;52.336;17.172;2022-12-07T00:02:01;14.60;;;9.40;;
17586;SDS011;8912;52.336;17.172;2022-12-07T00:04:33;13.47;;;8.47;;
17586;SDS011;8912;52.336;17.172;2022-12-07T00:07:01;15.70;;;9.17;;
17586;SDS011;8912;52.336;17.172;2022-12-07T00:09:31;17.00;;;9.27;;
17586;SDS011;8912;52.336;17.172;2022-12-07T00:12:00;16.43;;;9.43;;
17586;SDS011;8912;52.336;17.172;2022-12-07T00:14:41;18.87;;;10.30;;
17586;SDS011;8912;52.336;17.172;2022-12-07T00:17:10;18.67;;;9.77;;
17586;SDS011;8912;52.336;17.172;2022-12-07T00:19:39;16.87;;;9.50;;
17586;SDS011;8912;52.336;17.172;2022-12-07T00:22:08;16.97;;;9.80;;
17586;SDS011;8912;52.336;17.172;2022-12-07T00:24:36;17.10;;;10.17;;
17586;SDS011;8912;52.336;17.172;2022-12-07T00:27:05;17.83;;;10.63;;
17586;SDS011;8912;52.336;17.172;2022-12-07T00:29:34;19.77;;;10.50;;
17586;SDS011;8912;52.336;17.172;2022-12-07T00:32:05;24.60;;;12.20;;
17586;SDS011;8912;52.336;17.172;2022-12-07T00:34:34;22.03;;;10.93;;
17586;SDS011;8912;52.336;17.172;2022-12-07T00:37:02;25.17;;;12.17;;
17586;SDS011;8912;52.336;17.172;2022-12-07T00:39:31;24.67;;;12.03;;
17586;SDS011;8912;52.336;17.172;2022-12-07T00:42:00;25.13;;;12.53;;
17586;SDS011;8912;52.336;17.172;2022-12-07T00:44:29;25.60;;;12.70;;
17586;SDS011;8912;52.336;17.172;2022-12-07T00:46:58;26.77;;;13.20;;
17586;SDS011;8912;52.336;17.172;2022-12-07T00:49:28;30.07;;;14.47;;
17586;SDS011;8912;52.336;17.172;2022-12-07T00:51:57;25.20;;;12.83;;
17586;SDS011;8912;52.336;17.172;2022-12-07T00:54:25;20.97;;;11.57;;
17586;SDS011;8912;52.336;17.172;2022-12-07T00:56:54;26.17;;;12.17;;
17586;SDS011;8912;52.336;17.172;2022-12-07T00:59:23;30.43;;;13.70;;
17586;SDS011;8912;52.336;17.172;2022-12-07T01:01:51;27.03;;;12.73;;
17586;SDS011;8912;52.336;17.172;2022-12-07T01:04:20;26.93;;;13.03;;
17586;SDS011;8912;52.336;17.172;2022-12-07T01:06:51;29.93;;;13.33;;
17586;SDS011;8912;52.336;17.172;2022-12-07T01:09:20;27.30;;;11.83;;
17586;SDS011;8912;52.336;17.172;2022-12-07T01:11:49;23.87;;;11.93;;
17586;SDS011;8912;52.336;17.172;2022-12-07T01:14:17;25.23;;;12.33;;
17586;SDS011;8912;52.336;17.172;2022-12-07T01:16:46;22.57;;;11.97;;
17586;SDS011;8912;52.336;17.172;2022-12-07T01:19:15;23.97;;;10.87;;
17586;SDS011;8912;52.336;17.172;2022-12-07T01:21:44;22.13;;;10.47;;
17586;SDS011;8912;52.336;17.172;2022-12-07T01:24:14;21.63;;;11.30;;
17586;SDS011;8912;52.336;17.172;2022-12-07T01:26:43;22.93;;;11.37;;
17586;SDS011;8912;52.336;17.172;2022-12-07T01:29:12;23.67;;;11.53;;
17586;SDS011;8912;52.336;17.172;2022-12-07T01:31:40;24.60;;;11.87;;
17586;SDS011;8912;52.336;17.172;2022-12-07T01:34:09;19.93;;;10.67;;
17586;SDS011;8912;52.336;17.172;2022-12-07T01:36:38;25.97;;;11.67;;
17586;SDS011;8912;52.336;17.172;2022-12-07T01:39:07;28.90;;;13.30;;
17586;SDS011;8912;52.336;17.172;2022-12-07T01:41:39;25.77;;;13.03;;
17586;SDS011;8912;52.336;17.172;2022-12-07T01:44:12;26.47;;;13.37;;
17586;SDS011;8912;52.336;17.172;2022-12-07T01:46:44;27.40;;;13.70;;
17586;SDS011;8912;52.336;17.172;2022-12-07T01:49:21;26.83;;;13.43;;
17586;SDS011;8912;52.336;17.172;2022-12-07T01:51:57;27.03;;;13.13;;
17586;SDS011;8912;52.336;17.172;2022-12-07T01:54:30;29.37;;;14.80;;
17586;SDS011;8912;52.336;17.172;2022-12-07T01:57:01;29.67;;;15.10;;
17586;SDS011;8912;52.336;17.172;2022-12-07T01:59:32;30.60;;;14.57;;
17586;SDS011;8912;52.336;17.172;2022-12-07T02:02:03;26.20;;;13.53;;
17586;SDS011;8912;52.336;17.172;2022-12-07T02:04:35;29.50;;;13.50;;
17586;SDS011;8912;52.336;17.172;2022-12-07T02:07:04;29.37;;;14.57;;
17586;SDS011;8912;52.336;17.172;2022-12-07T02:09:34;27.80;;;14.77;;
17586;SDS011;8912;52.336;17.172;2022-12-07T02:12:04;25.57;;;13.23;;
17586;SDS011;8912;52.336;17.172;2022-12-07T02:14:33;30.83;;;15.07;;
17586;SDS011;8912;52.336;17.172;2022-12-07T02:17:05;27.90;;;13.73;;
17586;SDS011;8912;52.336;17.172;2022-12-07T02:23:07;24.40;;;13.23;;
17586;SDS011;8912;52.336;17.172;2022-12-07T02:29:14;25.27;;;12.67;;
17586;SDS011;8912;52.336;17.172;2022-12-07T02:31:50;24.03;;;12.27;;
17586;SDS011;8912;52.336;17.172;2022-12-07T02:34:33;25.17;;;13.47;;
17586;SDS011;8912;52.336;17.172;2022-12-07T02:37:09;25.07;;;13.33;;
17586;SDS011;8912;52.336;17.172;2022-12-07T02:39:48;24.73;;;12.67;;
17586;SDS011;8912;52.336;17.172;2022-12-07T02:42:24;26.30;;;13.07;;
17586;SDS011;8912;52.336;17.172;2022-12-07T02:44:58;23.47;;;13.03;;
17586;SDS011;8912;52.336;17.172;2022-12-07T02:47:28;24.73;;;13.33;;
17586;SDS011;8912;52.336;17.172;2022-12-07T02:49:59;21.93;;;12.37;;
17586;SDS011;8912;52.336;17.172;2022-12-07T02:52:31;23.53;;;12.17;;
17586;SDS011;8912;52.336;17.172;2022-12-07T02:55:00;22.20;;;12.27;;
17586;SDS011;8912;52.336;17.172;2022-12-07T02:57:34;24.10;;;13.43;;
17586;SDS011;8912;52.336;17.172;2022-12-07T03:00:16;20.47;;;11.80;;
17586;SDS011;8912;52.336;17.172;2022-12-07T03:02:52;20.50;;;12.37;;
17586;SDS011;8912;52.336;17.172;2022-12-07T03:05:29;21.37;;;11.70;;
17586;SDS011;8912;52.336;17.172;2022-12-07T03:08:12;23.07;;;12.43;;
17586;SDS011;8912;52.336;17.172;2022-12-07T03:10:48;20.83;;;12.53;;
17586;SDS011;8912;52.336;17.172;2022-12-07T03:13:25;21.47;;;11.97;;
17586;SDS011;8912;52.336;17.172;2022-12-07T03:16:03;22.03;;;11.50;;
17586;SDS011;8912;52.336;17.172;2022-12-07T03:18:37;19.83;;;11.80;;
17586;SDS011;8912;52.336;17.172;2022-12-07T03:21:15;20.30;;;10.80;;
17586;SDS011;8912;52.336;17.172;2022-12-07T03:23:47;21.93;;;11.07;;
17586;SDS011;8912;52.336;17.172;2022-12-07T03:26:21;17.80;;;10.83;;
17586;SDS011;8912;52.336;17.172;2022-12-07T03:28:53;21.13;;;12.03;;
17586;SDS011;8912;52.336;17.172;2022-12-07T03:31:29;18.37;;;11.73;;
17586;SDS011;8912;52.336;17.172;2022-12-07T03:34:02;19.27;;;11.30;;
17586;SDS011;8912;52.336;17.172;2022-12-07T03:36:37;22.47;;;12.70;;
17586;SDS011;8912;52.336;17.172;2022-12-07T03:39:12;21.00;;;11.53;;
17586;SDS011;8912;52.336;17.172;2022-12-07T03:41:45;19.43;;;11.13;;
17586;SDS011;8912;52.336;17.172;2022-12-07T03:44:17;18.83;;;11.80;;
17586;SDS011;8912;52.336;17.172;2022-12-07T03:46:50;20.30;;;12.07;;
17586;SDS011;8912;52.336;17.172;2022-12-07T03:49:30;20.00;;;12.07;;
17586;SDS011;8912;52.336;17.172;2022-12-07T03:52:07;17.77;;;11.03;;
17586;SDS011;8912;52.336;17.172;2022-12-07T03:54:41;20.70;;;10.83;;
17586;SDS011;8912;52.336;17.172;2022-12-07T03:57:15;18.43;;;11.13;;
17586;SDS011;8912;52.336;17.172;2022-12-07T03:59:45;16.80;;;11.50;;
17586;SDS011;8912;52.336;17.172;2022-12-07T04:02:16;16.93;;;11.20;;
17586;SDS011;8912;52.336;17.172;2022-12-07T04:04:45;17.07;;;10.93;;
17586;SDS011;8912;52.336;17.172;2022-12-07T04:07:14;16.10;;;11.03;;
17586;SDS011;8912;52.336;17.172;2022-12-07T04:09:43;17.57;;;11.00;;
17586;SDS011;8912;52.336;17.172;2022-12-07T04:12:13;16.73;;;11.33;;
17586;SDS011;8912;52.336;17.172;2022-12-07T04:14:42;15.87;;;10.47;;
17586;SDS011;8912;52.336;17.172;2022-12-07T04:17:10;16.20;;;11.03;;
17586;SDS011;8912;52.336;17.172;2022-12-07T04:19:41;14.47;;;10.80;;
17586;SDS011;8912;52.336;17.172;2022-12-07T04:22:10;16.87;;;9.87;;
17586;SDS011;8912;52.336;17.172;2022-12-07T04:24:38;13.60;;;9.77;;
17586;SDS011;8912;52.336;17.172;2022-12-07T04:27:07;12.53;;;9.00;;
17586;SDS011;8912;52.336;17.172;2022-12-07T04:29:36;12.23;;;9.17;;
17586;SDS011;8912;52.336;17.172;2022-12-07T04:32:06;13.87;;;9.00;;
17586;SDS011;8912;52.336;17.172;2022-12-07T04:34:35;12.23;;;9.07;;
17586;SDS011;8912;52.336;17.172;2022-12-07T04:37:05;13.23;;;9.00;;
17586;SDS011;8912;52.336;17.172;2022-12-07T04:39:34;11.73;;;8.17;;
17586;SDS011;8912;52.336;17.172;2022-12-07T04:42:03;12.97;;;8.97;;
17586;SDS011;8912;52.336;17.172;2022-12-07T04:44:32;13.37;;;9.97;;
17586;SDS011;8912;52.336;17.172;2022-12-07T04:47:01;14.50;;;10.17;;
17586;SDS011;8912;52.336;17.172;2022-12-07T04:49:30;13.83;;;9.57;;
17586;SDS011;8912;52.336;17.172;2022-12-07T04:51:58;13.83;;;9.63;;
17586;SDS011;8912;52.336;17.172;2022-12-07T04:54:29;13.43;;;9.63;;
17586;SDS011;8912;52.336;17.172;2022-12-07T04:56:58;17.17;;;10.10;;
17586;SDS011;8912;52.336;17.172;2022-12-07T04:59:27;18.63;;;11.93;;
17586;SDS011;8912;52.336;17.172;2022-12-07T05:01:56;15.37;;;11.23;;
17586;SDS011;8912;52.336;17.172;2022-12-07T05:04:25;16.00;;;11.03;;
17586;SDS011;8912;52.336;17.172;2022-12-07T05:06:54;19.27;;;11.83;;
17586;SDS011;8912;52.336;17.172;2022-12-07T05:09:23;16.97;;;11.40;;
17586;SDS011;8912;52.336;17.172;2022-12-07T05:11:53;17.93;;;11.83;;
17586;SDS011;8912;52.336;17.172;2022-12-07T05:14:22;16.50;;;11.67;;
17586;SDS011;8912;52.336;17.172;2022-12-07T05:16:51;18.90;;;12.53;;
17586;SDS011;8912;52.336;17.172;2022-12-07T05:19:20;18.27;;;11.90;;
17586;SDS011;8912;52.336;17.172;2022-12-07T05:21:49;19.17;;;12.67;;
17586;SDS011;8912;52.336;17.172;2022-12-07T05:24:18;17.07;;;12.33;;
17586;SDS011;8912;52.336;17.172;2022-12-07T05:26:47;15.60;;;11.47;;
17586;SDS011;8912;52.336;17.172;2022-12-07T05:29:17;17.10;;;11.70;;
17586;SDS011;8912;52.336;17.172;2022-12-07T05:31:46;15.20;;;10.60;;
17586;SDS011;8912;52.336;17.172;2022-12-07T05:34:15;17.63;;;11.50;;
17586;SDS011;8912;52.336;17.172;2022-12-07T05:36:44;15.17;;;11.03;;
17586;SDS011;8912;52.336;17.172;2022-12-07T05:39:12;16.37;;;11.03;;
17586;SDS011;8912;52.336;17.172;2022-12-07T05:41:41;16.47;;;11.70;;
17586;SDS011;8912;52.336;17.172;2022-12-07T05:44:41;18.90;;;11.90;;
17586;SDS011;8912;52.336;17.172;2022-12-07T05:47:11;16.27;;;11.70;;
17586;SDS011;8912;52.336;17.172;2022-12-07T05:49:41;15.67;;;11.40;;
17586;SDS011;8912;52.336;17.172;2022-12-07T05:52:09;16.50;;;11.27;;
17586;SDS011;8912;52.336;17.172;2022-12-07T05:54:38;17.47;;;12.20;;
17586;SDS011;8912;52.336;17.172;2022-12-07T05:57:09;19.43;;;12.13;;
17586;SDS011;8912;52.336;17.172;2022-12-07T05:59:38;15.57;;;11.53;;
17586;SDS011;8912;52.336;17.172;2022-12-07T06:02:08;17.17;;;12.53;;
17586;SDS011;8912;52.336;17.172;2022-12-07T06:04:38;16.67;;;11.87;;
17586;SDS011;8912;52.336;17.172;2022-12-07T06:07:09;21.37;;;14.23;;
17586;SDS011;8912;52.336;17.172;2022-12-07T06:09:39;21.97;;;12.50;;
17586;SDS011;8912;52.336;17.172;2022-12-07T06:12:09;20.83;;;12.20;;
17586;SDS011;8912;52.336;17.172;2022-12-07T06:14:56;20.83;;;13.00;;
17586;SDS011;8912;52.336;17.172;2022-12-07T06:17:26;17.27;;;11.93;;
17586;SDS011;8912;52.336;17.172;2022-12-07T06:19:55;19.07;;;12.20;;
17586;SDS011;8912;52.336;17.172;2022-12-07T06:22:23;18.00;;;12.70;;
17586;SDS011;8912;52.336;17.172;2022-12-07T06:24:52;17.43;;;12.47;;
17586;SDS011;8912;52.336;17.172;2022-12-07T06:27:21;19.07;;;12.63;;
17586;SDS011;8912;52.336;17.172;2022-12-07T06:29:50;21.50;;;13.53;;
17586;SDS011;8912;52.336;17.172;2022-12-07T06:32:19;17.90;;;12.43;;
17586;SDS011;8912;52.336;17.172;2022-12-07T06:34:49;14.63;;;10.00;;
17586;SDS011;8912;52.336;17.172;2022-12-07T06:37:18;11.97;;;8.63;;
17586;SDS011;8912;52.336;17.172;2022-12-07T06:39:47;34.63;;;18.93;;
17586;SDS011;8912;52.336;17.172;2022-12-07T06:42:16;111.70;;;62.00;;
17586;SDS011;8912;52.336;17.172;2022-12-07T06:44:44;57.00;;;38.43;;
17586;SDS011;8912;52.336;17.172;2022-12-07T06:47:13;26.40;;;19.40;;
17586;SDS011;8912;52.336;17.172;2022-12-07T06:50:04;13.50;;;10.10;;
17586;SDS011;8912;52.336;17.172;2022-12-07T06:52:34;12.20;;;9.00;;
17586;SDS011;8912;52.336;17.172;2022-12-07T06:55:03;13.90;;;9.93;;
17586;SDS011;8912;52.336;17.172;2022-12-07T06:57:32;16.07;;;9.60;;
17586;SDS011;8912;52.336;17.172;2022-12-07T07:00:02;15.87;;;10.40;;
17586;SDS011;8912;52.336;17.172;2022-12-07T07:02:32;15.37;;;9.97;;
17586;SDS011;8912;52.336;17.172;2022-12-07T07:05:01;12.97;;;9.03;;
17586;SDS011;8912;52.336;17.172;2022-12-07T07:07:31;14.67;;;9.70;;
17586;SDS011;8912;52.336;17.172;2022-12-07T07:10:20;14.27;;;9.90;;
17586;SDS011;8912;52.336;17.172;2022-12-07T07:12:52;13.73;;;9.43;;
17586;SDS011;8912;52.336;17.172;2022-12-07T07:15:23;13.50;;;9.47;;
17586;SDS011;8912;52.336;17.172;2022-12-07T07:17:52;13.93;;;8.80;;
17586;SDS011;8912;52.336;17.172;2022-12-07T07:20:21;15.80;;;10.40;;
17586;SDS011;8912;52.336;17.172;2022-12-07T07:22:51;16.37;;;11.17;;
17586;SDS011;8912;52.336;17.172;2022-12-07T07:25:22;14.13;;;9.00;;
17586;SDS011;8912;52.336;17.172;2022-12-07T07:27:51;23.13;;;15.60;;
17586;SDS011;8912;52.336;17.172;2022-12-07T07:30:23;28.87;;;18.37;;
17586;SDS011;8912;52.336;17.172;2022-12-07T07:32:56;17.63;;;9.70;;
17586;SDS011;8912;52.336;17.172;2022-12-07T07:35:25;13.50;;;9.00;;
17586;SDS011;8912;52.336;17.172;2022-12-07T07:37:56;13.23;;;8.13;;
17586;SDS011;8912;52.336;17.172;2022-12-07T07:40:25;11.93;;;8.73;;
17586;SDS011;8912;52.336;17.172;2022-12-07T07:42:55;14.87;;;8.40;;
17586;SDS011;8912;52.336;17.172;2022-12-07T07:45:25;12.93;;;7.80;;
17586;SDS011;8912;52.336;17.172;2022-12-07T07:47:54;11.80;;;8.70;;
17586;SDS011;8912;52.336;17.172;2022-12-07T07:50:23;12.90;;;8.50;;
17586;SDS011;8912;52.336;17.172;2022-12-07T07:52:52;12.90;;;8.43;;
17586;SDS011;8912;52.336;17.172;2022-12-07T07:55:22;13.13;;;8.00;;
17586;SDS011;8912;52.336;17.172;2022-12-07T07:57:52;12.57;;;8.37;;
17586;SDS011;8912;52.336;17.172;2022-12-07T08:00:22;13.47;;;8.70;;
17586;SDS011;8912;52.336;17.172;2022-12-07T08:02:51;14.90;;;9.93;;
17586;SDS011;8912;52.336;17.172;2022-12-07T08:05:21;15.47;;;9.53;;
17586;SDS011;8912;52.336;17.172;2022-12-07T08:07:50;14.07;;;9.37;;
17586;SDS011;8912;52.336;17.172;2022-12-07T08:10:19;14.30;;;9.77;;
17586;SDS011;8912;52.336;17.172;2022-12-07T08:12:49;14.77;;;9.83;;
17586;SDS011;8912;52.336;17.172;2022-12-07T08:15:36;15.43;;;10.80;;
17586;SDS011;8912;52.336;17.172;2022-12-07T08:18:06;15.00;;;10.60;;
17586;SDS011;8912;52.336;17.172;2022-12-07T08:20:36;17.13;;;10.97;;
17586;SDS011;8912;52.336;17.172;2022-12-07T08:23:06;14.40;;;9.70;;
17586;SDS011;8912;52.336;17.172;2022-12-07T08:25:36;12.97;;;9.40;;
17586;SDS011;8912;52.336;17.172;2022-12-07T08:28:06;14.70;;;9.93;;
17586;SDS011;8912;52.336;17.172;2022-12-07T08:30:36;13.87;;;9.90;;
17586;SDS011;8912;52.336;17.172;2022-12-07T08:33:05;15.60;;;10.03;;
17586;SDS011;8912;52.336;17.172;2022-12-07T08:35:34;15.23;;;10.07;;
17586;SDS011;8912;52.336;17.172;2022-12-07T08:38:03;15.10;;;10.10;;
17586;SDS011;8912;52.336;17.172;2022-12-07T08:40:32;14.47;;;10.30;;
17586;SDS011;8912;52.336;17.172;2022-12-07T08:43:00;15.13;;;9.87;;
17586;SDS011;8912;52.336;17.172;2022-12-07T08:45:30;13.17;;;9.73;;
17586;SDS011;8912;52.336;17.172;2022-12-07T08:48:04;12.30;;;9.30;;
17586;SDS011;8912;52.336;17.172;2022-12-07T08:50:37;12.83;;;9.03;;
17586;SDS011;8912;52.336;17.172;2022-12-07T08:53:15;17.47;;;9.20;;
17586;SDS011;8912;52.336;17.172;2022-12-07T08:55:44;17.53;;;9.33;;
17586;SDS011;8912;52.336;17.172;2022-12-07T08:58:15;15.40;;;9.40;;
17586;SDS011;8912;52.336;17.172;2022-12-07T09:00:45;19.03;;;9.27;;
17586;SDS011;8912;52.336;17.172;2022-12-07T09:03:14;13.53;;;8.97;;
17586;SDS011;8912;52.336;17.172;2022-12-07T09:05:43;12.87;;;8.63;;
17586;SDS011;8912;52.336;17.172;2022-12-07T09:08:12;11.90;;;8.50;;
17586;SDS011;8912;52.336;17.172;2022-12-07T09:10:43;20.10;;;12.67;;
17586;SDS011;8912;52.336;17.172;2022-12-07T09:13:12;23.83;;;14.97;;
17586;SDS011;8912;52.336;17.172;2022-12-07T09:15:41;46.23;;;23.50;;
17586;SDS011;8912;52.336;17.172;2022-12-07T09:18:12;39.47;;;18.63;;
17586;SDS011;8912;52.336;17.172;2022-12-07T09:20:41;31.00;;;15.40;;
17586;SDS011;8912;52.336;17.172;2022-12-07T09:23:10;29.83;;;14.97;;
17586;SDS011;8912;52.336;17.172;2022-12-07T09:25:38;39.07;;;17.83;;
17586;SDS011;8912;52.336;17.172;2022-12-07T09:28:07;31.60;;;14.70;;
17586;SDS011;8912;52.336;17.172;2022-12-07T09:30:36;27.70;;;14.67;;
17586;SDS011;8912;52.336;17.172;2022-12-07T09:33:26;20.47;;;12.27;;
17586;SDS011;8912;52.336;17.172;2022-12-07T09:35:55;15.80;;;10.77;;
17586;SDS011;8912;52.336;17.172;2022-12-07T09:38:24;16.00;;;10.00;;
17586;SDS011;8912;52.336;17.172;2022-12-07T09:40:53;17.10;;;10.00;;
17586;SDS011;8912;52.336;17.172;2022-12-07T09:43:24;18.87;;;11.73;;
17586;SDS011;8912;52.336;17.172;2022-12-07T09:45:54;16.37;;;11.03;;
17586;SDS011;8912;52.336;17.172;2022-12-07T09:48:25;13.83;;;10.17;;
17586;SDS011;8912;52.336;17.172;2022-12-07T09:50:59;18.70;;;12.07;;
17586;SDS011;8912;52.336;17.172;2022-12-07T09:53:31;17.23;;;11.90;;
17586;SDS011;8912;52.336;17.172;2022-12-07T09:56:03;22.73;;;12.97;;
17586;SDS011;8912;52.336;17.172;2022-12-07T09:58:32;19.50;;;12.30;;
17586;SDS011;8912;52.336;17.172;2022-12-07T10:01:05;19.53;;;12.63;;
17586;SDS011;8912;52.336;17.172;2022-12-07T10:03:42;24.57;;;14.03;;
17586;SDS011;8912;52.336;17.172;2022-12-07T10:06:16;20.70;;;13.97;;
17586;SDS011;8912;52.336;17.172;2022-12-07T10:08:45;25.07;;;16.93;;
17586;SDS011;8912;52.336;17.172;2022-12-07T10:11:14;23.63;;;15.07;;
17586;SDS011;8912;52.336;17.172;2022-12-07T10:13:44;24.00;;;15.33;;
17586;SDS011;8912;52.336;17.172;2022-12-07T10:19:19;24.63;;;15.33;;
17586;SDS011;8912;52.336;17.172;2022-12-07T10:22:01;27.37;;;15.57;;
17586;SDS011;8912;52.336;17.172;2022-12-07T10:24:33;22.73;;;14.80;;
17586;SDS011;8912;52.336;17.172;2022-12-07T10:27:04;23.33;;;15.37;;
17586;SDS011;8912;52.336;17.172;2022-12-07T10:29:34;26.97;;;15.60;;
17586;SDS011;8912;52.336;17.172;2022-12-07T10:32:23;23.70;;;16.30;;
17586;SDS011;8912;52.336;17.172;2022-12-07T10:35:22;28.17;;;17.43;;
17586;SDS011;8912;52.336;17.172;2022-12-07T10:37:53;32.17;;;18.87;;
17586;SDS011;8912;52.336;17.172;2022-12-07T10:40:26;32.17;;;18.20;;
17586;SDS011;8912;52.336;17.172;2022-12-07T10:43:02;30.23;;;18.43;;
17586;SDS011;8912;52.336;17.172;2022-12-07T10:45:34;28.50;;;17.67;;
17586;SDS011;8912;52.336;17.172;2022-12-07T10:48:30;25.90;;;16.40;;
17586;SDS011;8912;52.336;17.172;2022-12-07T10:51:10;31.20;;;17.57;;
17586;SDS011;8912;52.336;17.172;2022-12-07T10:53:48;33.70;;;19.10;;
17586;SDS011;8912;52.336;17.172;2022-12-07T10:56:33;41.87;;;19.53;;
17586;SDS011;8912;52.336;17.172;2022-12-07T10:59:29;31.10;;;17.00;;
17586;SDS011;8912;52.336;17.172;2022-12-07T11:02:15;29.77;;;17.37;;
17586;SDS011;8912;52.336;17.172;2022-12-07T11:04:56;26.33;;;15.47;;
17586;SDS011;8912;52.336;17.172;2022-12-07T11:07:38;28.30;;;16.73;;
17586;SDS011;8912;52.336;17.172;2022-12-07T11:10:20;29.83;;;16.77;;
17586;SDS011;8912;52.336;17.172;2022-12-07T11:12:56;26.60;;;17.00;;
17586;SDS011;8912;52.336;17.172;2022-12-07T11:15:42;30.50;;;16.83;;
17586;SDS011;8912;52.336;17.172;2022-12-07T11:18:21;27.97;;;16.63;;
17586;SDS011;8912;52.336;17.172;2022-12-07T11:20:58;33.30;;;18.20;;
17586;SDS011;8912;52.336;17.172;2022-12-07T11:23:41;33.20;;;19.33;;
17586;SDS011;8912;52.336;17.172;2022-12-07T11:26:19;28.27;;;17.43;;
17586;SDS011;8912;52.336;17.172;2022-12-07T11:29:02;33.23;;;19.53;;
17586;SDS011;8912;52.336;17.172;2022-12-07T11:31:49;31.03;;;19.27;;
17586;SDS011;8912;52.336;17.172;2022-12-07T11:34:29;38.37;;;19.70;;
17586;SDS011;8912;52.336;17.172;2022-12-07T11:37:07;25.00;;;15.33;;
17586;SDS011;8912;52.336;17.172;2022-12-07T11:39:44;27.07;;;16.77;;
17586;SDS011;8912;52.336;17.172;2022-12-07T11:42:20;29.07;;;17.57;;
17586;SDS011;8912;52.336;17.172;2022-12-07T11:44:52;23.33;;;15.10;;
17586;SDS011;8912;52.336;17.172;2022-12-07T11:47:26;24.53;;;15.30;;
17586;SDS011;8912;52.336;17.172;2022-12-07T11:50:03;25.90;;;15.83;;
17586;SDS011;8912;52.336;17.172;2022-12-07T11:52:43;24.70;;;15.93;;
17586;SDS011;8912;52.336;17.172;2022-12-07T11:55:21;24.30;;;16.27;;
17586;SDS011;8912;52.336;17.172;2022-12-07T11:57:57;23.90;;;16.70;;
17586;SDS011;8912;52.336;17.172;2022-12-07T12:00:31;26.97;;;17.23;;
17586;SDS011;8912;52.336;17.172;2022-12-07T12:03:02;27.17;;;17.37;;
17586;SDS011;8912;52.336;17.172;2022-12-07T12:05:37;26.83;;;16.83;;
17586;SDS011;8912;52.336;17.172;2022-12-07T12:08:11;26.13;;;17.10;;
17586;SDS011;8912;52.336;17.172;2022-12-07T12:11:08;25.07;;;16.00;;
17586;SDS011;8912;52.336;17.172;2022-12-07T12:13:59;25.90;;;17.07;;
17586;SDS011;8912;52.336;17.172;2022-12-07T12:19:58;23.73;;;15.60;;
17586;SDS011;8912;52.336;17.172;2022-12-07T12:22:33;23.77;;;15.10;;
17586;SDS011;8912;52.336;17.172;2022-12-07T12:25:06;21.63;;;15.07;;
17586;SDS011;8912;52.336;17.172;2022-12-07T12:27:50;26.13;;;17.27;;
17586;SDS011;8912;52.336;17.172;2022-12-07T12:30:24;28.27;;;17.33;;
17586;SDS011;8912;52.336;17.172;2022-12-07T12:33:03;22.80;;;14.97;;
17586;SDS011;8912;52.336;17.172;2022-12-07T12:35:35;23.40;;;15.67;;
17586;SDS011;8912;52.336;17.172;2022-12-07T12:38:25;20.57;;;13.70;;
17586;SDS011;8912;52.336;17.172;2022-12-07T12:40:56;23.43;;;15.60;;
17586;SDS011;8912;52.336;17.172;2022-12-07T12:43:41;20.27;;;14.33;;
17586;SDS011;8912;52.336;17.172;2022-12-07T12:49:31;18.77;;;13.30;;
17586;SDS011;8912;52.336;17.172;2022-12-07T12:58:28;18.77;;;13.57;;
17586;SDS011;8912;52.336;17.172;2022-12-07T13:04:18;17.67;;;12.57;;
17586;SDS011;8912;52.336;17.172;2022-12-07T13:07:12;16.30;;;12.40;;
17586;SDS011;8912;52.336;17.172;2022-12-07T13:10:02;17.27;;;12.63;;
17586;SDS011;8912;52.336;17.172;2022-12-07T13:12:31;22.93;;;13.80;;
17586;SDS011;8912;52.336;17.172;2022-12-07T13:15:00;17.57;;;12.70;;
17586;SDS011;8912;52.336;17.172;2022-12-07T13:20:45;17.47;;;11.90;;
17586;SDS011;8912;52.336;17.172;2022-12-07T13:23:20;15.03;;;10.90;;
17586;SDS011;8912;52.336;17.172;2022-12-07T13:25:54;18.23;;;11.47;;
17586;SDS011;8912;52.336;17.172;2022-12-07T13:28:32;16.10;;;10.93;;
17586;SDS011;8912;52.336;17.172;2022-12-07T13:31:10;14.60;;;10.07;;
17586;SDS011;8912;52.336;17.172;2022-12-07T13:33:47;13.77;;;9.43;;
17586;SDS011;8912;52.336;17.172;2022-12-07T13:36:19;12.60;;;9.27;;
17586;SDS011;8912;52.336;17.172;2022-12-07T13:38:51;12.10;;;8.67;;
17586;SDS011;8912;52.336;17.172;2022-12-07T13:41:22;13.67;;;9.43;;
17586;SDS011;8912;52.336;17.172;2022-12-07T13:44:02;13.07;;;8.87;;
17586;SDS011;8912;52.336;17.172;2022-12-07T13:46:40;14.00;;;9.50;;
17586;SDS011;8912;52.336;17.172;2022-12-07T13:49:21;11.77;;;8.40;;
17586;SDS011;8912;52.336;17.172;2022-12-07T13:51:53;11.40;;;8.13;;
17586;SDS011;8912;52.336;17.172;2022-12-07T13:54:42;10.70;;;6.73;;
17586;SDS011;8912;52.336;17.172;2022-12-07T13:57:12;12.97;;;7.77;;
17586;SDS011;8912;52.336;17.172;2022-12-07T13:59:42;10.73;;;7.10;;
17586;SDS011;8912;52.336;17.172;2022-12-07T14:02:21;10.30;;;7.40;;
17586;SDS011;8912;52.336;17.172;2022-12-07T14:05:07;12.10;;;8.00;;
17586;SDS011;8912;52.336;17.172;2022-12-07T14:07:52;10.10;;;7.27;;
17586;SDS011;8912;52.336;17.172;2022-12-07T14:10:23;11.77;;;8.40;;
17586;SDS011;8912;52.336;17.172;2022-12-07T14:12:54;12.07;;;8.50;;
17586;SDS011;8912;52.336;17.172;2022-12-07T14:15:24;14.00;;;9.40;;
17586;SDS011;8912;52.336;17.172;2022-12-07T14:17:56;19.80;;;12.87;;
17586;SDS011;8912;52.336;17.172;2022-12-07T14:20:31;14.27;;;10.13;;
17586;SDS011;8912;52.336;17.172;2022-12-07T14:23:03;12.23;;;8.10;;
17586;SDS011;8912;52.336;17.172;2022-12-07T14:25:44;10.70;;;7.53;;
17586;SDS011;8912;52.336;17.172;2022-12-07T14:28:27;10.20;;;7.03;;
17586;SDS011;8912;52.336;17.172;2022-12-07T14:30:57;11.40;;;7.70;;
17586;SDS011;8912;52.336;17.172;2022-12-07T14:33:27;8.80;;;7.07;;
17586;SDS011;8912;52.336;17.172;2022-12-07T14:35:56;11.10;;;7.30;;
17586;SDS011;8912;52.336;17.172;2022-12-07T14:38:26;10.73;;;7.53;;
17586;SDS011;8912;52.336;17.172;2022-12-07T14:40:55;11.23;;;7.77;;
17586;SDS011;8912;52.336;17.172;2022-12-07T14:43:46;9.83;;;7.63;;
17586;SDS011;8912;52.336;17.172;2022-12-07T14:46:35;9.97;;;7.03;;
17586;SDS011;8912;52.336;17.172;2022-12-07T14:49:04;10.23;;;7.23;;
17586;SDS011;8912;52.336;17.172;2022-12-07T14:51:53;8.37;;;5.90;;
17586;SDS011;8912;52.336;17.172;2022-12-07T14:54:43;10.17;;;6.83;;
17586;SDS011;8912;52.336;17.172;2022-12-07T14:57:12;10.03;;;8.00;;
17586;SDS011;8912;52.336;17.172;2022-12-07T14:59:41;10.47;;;7.77;;
17586;SDS011;8912;52.336;17.172;2022-12-07T15:02:12;9.83;;;7.30;;
17586;SDS011;8912;52.336;17.172;2022-12-07T15:04:41;8.60;;;6.90;;
17586;SDS011;8912;52.336;17.172;2022-12-07T15:07:12;10.30;;;7.53;;
17586;SDS011;8912;52.336;17.172;2022-12-07T15:09:46;15.03;;;9.07;;
17586;SDS011;8912;52.336;17.172;2022-12-07T15:12:15;29.53;;;17.63;;
17586;SDS011;8912;52.336;17.172;2022-12-07T15:14:44;25.20;;;14.10;;
17586;SDS011;8912;52.336;17.172;2022-12-07T15:17:12;12.10;;;8.53;;
17586;SDS011;8912;52.336;17.172;2022-12-07T15:19:57;14.80;;;9.90;;
17586;SDS011;8912;52.336;17.172;2022-12-07T15:22:26;7.63;;;6.03;;
17586;SDS011;8912;52.336;17.172;2022-12-07T15:25:05;7.50;;;6.10;;
17586;SDS011;8912;52.336;17.172;2022-12-07T15:27:34;8.47;;;6.20;;
17586;SDS011;8912;52.336;17.172;2022-12-07T15:30:04;8.60;;;7.10;;